sensor_id;sensor_type;location;lat;lon;timestamp;temperature;humidity
25214;DHT22;13160;51.834;4.706;2022-07-05T00:02:01;17.10;99.90
25214;DHT22;13160;51.834;4.706;2022-07-05T00:04:29;17.10;99.90
25214;DHT22;13160;51.834;4.706;2022-07-05T00:06:58;17.10;99.90
25214;DHT22;13160;51.834;4.706;2022-07-05T00:09:43;17.10;99.90
25214;DHT22;13160;51.834;4.706;2022-07-05T00:12:12;17.10;99.90
25214;DHT22;13160;51.834;4.706;2022-07-05T00:14:43;17.00;99.90
25214;DHT22;13160;51.834;4.706;2022-07-05T00:17:12;17.10;99.90
25214;DHT22;13160;51.834;4.706;2022-07-05T00:19:42;17.00;99.90
25214;DHT22;13160;51.834;4.706;2022-07-05T00:22:10;17.00;99.90
25214;DHT22;13160;51.834;4.706;2022-07-05T00:24:38;17.10;99.90
25214;DHT22;13160;51.834;4.706;2022-07-05T00:27:07;17.10;99.90
25214;DHT22;13160;51.834;4.706;2022-07-05T00:29:36;17.10;99.90
25214;DHT22;13160;51.834;4.706;2022-07-05T00:32:07;17.10;99.90
25214;DHT22;13160;51.834;4.706;2022-07-05T00:34:35;17.10;99.90
25214;DHT22;13160;51.834;4.706;2022-07-05T00:37:03;17.10;99.90
25214;DHT22;13160;51.834;4.706;2022-07-05T00:39:32;17.10;99.90
25214;DHT22;13160;51.834;4.706;2022-07-05T00:42:00;17.10;99.90
25214;DHT22;13160;51.834;4.706;2022-07-05T00:44:31;17.20;99.90
25214;DHT22;13160;51.834;4.706;2022-07-05T00:47:02;17.20;99.90
25214;DHT22;13160;51.834;4.706;2022-07-05T00:49:33;17.20;99.90
25214;DHT22;13160;51.834;4.706;2022-07-05T00:52:03;17.20;99.90
25214;DHT22;13160;51.834;4.706;2022-07-05T00:54:48;17.20;99.90
25214;DHT22;13160;51.834;4.706;2022-07-05T00:57:18;17.20;99.90
25214;DHT22;13160;51.834;4.706;2022-07-05T00:59:48;17.20;99.90
25214;DHT22;13160;51.834;4.706;2022-07-05T01:02:16;17.10;99.90
25214;DHT22;13160;51.834;4.706;2022-07-05T01:04:50;17.10;99.90
25214;DHT22;13160;51.834;4.706;2022-07-05T01:07:20;17.10;99.90
25214;DHT22;13160;51.834;4.706;2022-07-05T01:09:49;17.10;99.90
25214;DHT22;13160;51.834;4.706;2022-07-05T01:12:18;17.10;99.90
25214;DHT22;13160;51.834;4.706;2022-07-05T01:14:47;17.10;99.90
25214;DHT22;13160;51.834;4.706;2022-07-05T01:17:17;17.10;99.90
25214;DHT22;13160;51.834;4.706;2022-07-05T01:19:45;17.10;99.90
25214;DHT22;13160;51.834;4.706;2022-07-05T01:22:18;17.10;99.90
25214;DHT22;13160;51.834;4.706;2022-07-05T01:24:49;17.10;99.90
25214;DHT22;13160;51.834;4.706;2022-07-05T01:27:18;17.00;99.90
25214;DHT22;13160;51.834;4.706;2022-07-05T01:29:47;17.00;99.90
25214;DHT22;13160;51.834;4.706;2022-07-05T01:32:15;17.00;99.90
25214;DHT22;13160;51.834;4.706;2022-07-05T01:34:44;16.90;99.90
25214;DHT22;13160;51.834;4.706;2022-07-05T01:37:14;16.90;99.90
25214;DHT22;13160;51.834;4.706;2022-07-05T01:39:43;16.90;99.90
25214;DHT22;13160;51.834;4.706;2022-07-05T01:42:13;16.90;99.90
25214;DHT22;13160;51.834;4.706;2022-07-05T01:44:41;16.90;99.90
25214;DHT22;13160;51.834;4.706;2022-07-05T01:47:10;16.90;99.90
25214;DHT22;13160;51.834;4.706;2022-07-05T01:49:43;16.90;99.90
25214;DHT22;13160;51.834;4.706;2022-07-05T01:52:16;16.90;99.90
25214;DHT22;13160;51.834;4.706;2022-07-05T01:54:49;16.90;99.90
25214;DHT22;13160;51.834;4.706;2022-07-05T01:57:18;16.90;99.90
25214;DHT22;13160;51.834;4.706;2022-07-05T01:59:47;16.90;99.90
25214;DHT22;13160;51.834;4.706;2022-07-05T02:02:15;16.90;99.90
25214;DHT22;13160;51.834;4.706;2022-07-05T02:04:46;16.90;99.90
25214;DHT22;13160;51.834;4.706;2022-07-05T02:07:15;16.90;99.90
25214;DHT22;13160;51.834;4.706;2022-07-05T02:09:44;16.90;99.90
25214;DHT22;13160;51.834;4.706;2022-07-05T02:12:12;16.90;99.90
25214;DHT22;13160;51.834;4.706;2022-07-05T02:14:42;17.00;99.90
25214;DHT22;13160;51.834;4.706;2022-07-05T02:17:11;17.00;99.90
25214;DHT22;13160;51.834;4.706;2022-07-05T02:19:39;17.00;99.90
25214;DHT22;13160;51.834;4.706;2022-07-05T02:22:07;17.00;99.90
25214;DHT22;13160;51.834;4.706;2022-07-05T02:24:36;17.00;99.90
25214;DHT22;13160;51.834;4.706;2022-07-05T02:27:04;17.00;99.90
25214;DHT22;13160;51.834;4.706;2022-07-05T02:29:32;17.10;99.90
25214;DHT22;13160;51.834;4.706;2022-07-05T02:32:03;17.10;99.90
25214;DHT22;13160;51.834;4.706;2022-07-05T02:34:31;17.10;99.90
25214;DHT22;13160;51.834;4.706;2022-07-05T02:37:00;17.10;99.90
25214;DHT22;13160;51.834;4.706;2022-07-05T02:39:28;17.10;99.90
25214;DHT22;13160;51.834;4.706;2022-07-05T02:41:57;17.10;99.90
25214;DHT22;13160;51.834;4.706;2022-07-05T02:44:25;17.10;99.90
25214;DHT22;13160;51.834;4.706;2022-07-05T02:46:54;17.10;99.90
25214;DHT22;13160;51.834;4.706;2022-07-05T02:49:23;17.10;99.90
25214;DHT22;13160;51.834;4.706;2022-07-05T02:51:52;17.00;99.90
25214;DHT22;13160;51.834;4.706;2022-07-05T02:54:21;17.00;99.90
25214;DHT22;13160;51.834;4.706;2022-07-05T02:56:49;17.00;99.90
25214;DHT22;13160;51.834;4.706;2022-07-05T02:59:17;17.00;99.90
25214;DHT22;13160;51.834;4.706;2022-07-05T03:01:46;17.00;99.90
25214;DHT22;13160;51.834;4.706;2022-07-05T03:04:14;16.90;99.90
25214;DHT22;13160;51.834;4.706;2022-07-05T03:06:44;16.90;99.90
25214;DHT22;13160;51.834;4.706;2022-07-05T03:09:17;16.90;99.90
25214;DHT22;13160;51.834;4.706;2022-07-05T03:11:46;16.90;99.90
25214;DHT22;13160;51.834;4.706;2022-07-05T03:14:14;16.90;99.90
25214;DHT22;13160;51.834;4.706;2022-07-05T03:16:43;17.00;99.90
25214;DHT22;13160;51.834;4.706;2022-07-05T03:19:11;16.90;99.90
25214;DHT22;13160;51.834;4.706;2022-07-05T03:21:39;16.90;99.90
25214;DHT22;13160;51.834;4.706;2022-07-05T03:24:10;17.00;99.90
25214;DHT22;13160;51.834;4.706;2022-07-05T03:26:39;17.00;99.90
25214;DHT22;13160;51.834;4.706;2022-07-05T03:29:08;17.00;99.90
25214;DHT22;13160;51.834;4.706;2022-07-05T03:31:37;17.00;99.90
25214;DHT22;13160;51.834;4.706;2022-07-05T03:34:05;17.00;99.90
25214;DHT22;13160;51.834;4.706;2022-07-05T03:36:34;17.00;99.90
25214;DHT22;13160;51.834;4.706;2022-07-05T03:39:02;17.00;99.90
25214;DHT22;13160;51.834;4.706;2022-07-05T03:41:32;17.00;99.90
25214;DHT22;13160;51.834;4.706;2022-07-05T03:44:00;17.00;99.90
25214;DHT22;13160;51.834;4.706;2022-07-05T03:46:29;17.10;99.90
25214;DHT22;13160;51.834;4.706;2022-07-05T03:48:57;17.10;99.90
25214;DHT22;13160;51.834;4.706;2022-07-05T03:51:26;17.10;99.90
25214;DHT22;13160;51.834;4.706;2022-07-05T03:53:54;17.10;99.90
25214;DHT22;13160;51.834;4.706;2022-07-05T03:56:23;17.10;99.90
25214;DHT22;13160;51.834;4.706;2022-07-05T03:58:53;17.10;99.90
25214;DHT22;13160;51.834;4.706;2022-07-05T04:01:22;17.10;99.90
25214;DHT22;13160;51.834;4.706;2022-07-05T04:03:50;17.10;99.90
25214;DHT22;13160;51.834;4.706;2022-07-05T04:06:19;17.10;99.90
25214;DHT22;13160;51.834;4.706;2022-07-05T04:08:47;17.10;99.90
25214;DHT22;13160;51.834;4.706;2022-07-05T04:11:16;17.20;99.90
25214;DHT22;13160;51.834;4.706;2022-07-05T04:13:44;17.20;99.90
25214;DHT22;13160;51.834;4.706;2022-07-05T04:16:14;17.20;99.90
25214;DHT22;13160;51.834;4.706;2022-07-05T04:18:42;17.20;99.90
25214;DHT22;13160;51.834;4.706;2022-07-05T04:21:10;17.20;99.90
25214;DHT22;13160;51.834;4.706;2022-07-05T04:23:39;17.20;99.90
25214;DHT22;13160;51.834;4.706;2022-07-05T04:26:07;17.20;99.90
25214;DHT22;13160;51.834;4.706;2022-07-05T04:28:35;17.30;99.90
25214;DHT22;13160;51.834;4.706;2022-07-05T04:31:04;17.30;99.90
25214;DHT22;13160;51.834;4.706;2022-07-05T04:33:34;17.30;99.90
25214;DHT22;13160;51.834;4.706;2022-07-05T04:36:02;17.40;99.90
25214;DHT22;13160;51.834;4.706;2022-07-05T04:38:30;17.30;99.90
25214;DHT22;13160;51.834;4.706;2022-07-05T04:40:59;17.30;99.90
25214;DHT22;13160;51.834;4.706;2022-07-05T04:43:27;17.40;99.90
25214;DHT22;13160;51.834;4.706;2022-07-05T04:45:55;17.40;99.90
25214;DHT22;13160;51.834;4.706;2022-07-05T04:48:23;17.40;99.90
25214;DHT22;13160;51.834;4.706;2022-07-05T04:50:53;17.40;99.90
25214;DHT22;13160;51.834;4.706;2022-07-05T04:53:22;17.40;99.90
25214;DHT22;13160;51.834;4.706;2022-07-05T04:55:50;17.50;99.90
25214;DHT22;13160;51.834;4.706;2022-07-05T04:58:18;17.50;99.90
25214;DHT22;13160;51.834;4.706;2022-07-05T05:00:47;17.60;99.90
25214;DHT22;13160;51.834;4.706;2022-07-05T05:03:15;17.60;99.90
25214;DHT22;13160;51.834;4.706;2022-07-05T05:05:43;17.70;99.90
25214;DHT22;13160;51.834;4.706;2022-07-05T05:08:13;17.80;99.90
25214;DHT22;13160;51.834;4.706;2022-07-05T05:10:42;17.90;99.90
25214;DHT22;13160;51.834;4.706;2022-07-05T05:13:10;17.90;99.90
25214;DHT22;13160;51.834;4.706;2022-07-05T05:15:38;18.00;99.90
25214;DHT22;13160;51.834;4.706;2022-07-05T05:18:06;18.10;99.90
25214;DHT22;13160;51.834;4.706;2022-07-05T05:20:35;18.10;99.90
25214;DHT22;13160;51.834;4.706;2022-07-05T05:23:06;18.20;99.90
25214;DHT22;13160;51.834;4.706;2022-07-05T05:25:36;18.30;99.90
25214;DHT22;13160;51.834;4.706;2022-07-05T05:28:04;18.40;99.90
25214;DHT22;13160;51.834;4.706;2022-07-05T05:30:33;18.40;99.90
25214;DHT22;13160;51.834;4.706;2022-07-05T05:33:01;18.50;99.90
25214;DHT22;13160;51.834;4.706;2022-07-05T05:35:30;18.60;99.90
25214;DHT22;13160;51.834;4.706;2022-07-05T05:37:58;18.70;99.90
25214;DHT22;13160;51.834;4.706;2022-07-05T05:40:26;18.70;99.90
25214;DHT22;13160;51.834;4.706;2022-07-05T05:42:56;18.80;99.90
25214;DHT22;13160;51.834;4.706;2022-07-05T05:45:25;18.90;99.90
25214;DHT22;13160;51.834;4.706;2022-07-05T05:47:55;19.00;99.90
25214;DHT22;13160;51.834;4.706;2022-07-05T05:50:28;19.10;99.90
25214;DHT22;13160;51.834;4.706;2022-07-05T05:52:57;19.20;99.90
25214;DHT22;13160;51.834;4.706;2022-07-05T05:55:27;19.30;99.90
25214;DHT22;13160;51.834;4.706;2022-07-05T05:58:10;19.40;99.90
25214;DHT22;13160;51.834;4.706;2022-07-05T06:00:39;19.50;99.90
25214;DHT22;13160;51.834;4.706;2022-07-05T06:03:07;19.60;99.90
25214;DHT22;13160;51.834;4.706;2022-07-05T06:05:36;19.60;99.90
25214;DHT22;13160;51.834;4.706;2022-07-05T06:08:04;19.70;99.90
25214;DHT22;13160;51.834;4.706;2022-07-05T06:10:34;19.80;99.90
25214;DHT22;13160;51.834;4.706;2022-07-05T06:13:05;19.80;99.90
25214;DHT22;13160;51.834;4.706;2022-07-05T06:15:34;19.90;99.90
25214;DHT22;13160;51.834;4.706;2022-07-05T06:18:03;20.00;99.90
25214;DHT22;13160;51.834;4.706;2022-07-05T06:20:33;20.10;99.90
25214;DHT22;13160;51.834;4.706;2022-07-05T06:23:03;20.20;99.90
25214;DHT22;13160;51.834;4.706;2022-07-05T06:25:33;20.20;99.90
25214;DHT22;13160;51.834;4.706;2022-07-05T06:28:07;20.20;99.90
25214;DHT22;13160;51.834;4.706;2022-07-05T06:30:37;20.30;99.90
25214;DHT22;13160;51.834;4.706;2022-07-05T06:33:06;20.30;99.90
25214;DHT22;13160;51.834;4.706;2022-07-05T06:35:34;20.40;99.90
25214;DHT22;13160;51.834;4.706;2022-07-05T06:38:04;20.50;99.90
25214;DHT22;13160;51.834;4.706;2022-07-05T06:40:34;20.50;99.90
25214;DHT22;13160;51.834;4.706;2022-07-05T06:43:06;20.50;99.90
25214;DHT22;13160;51.834;4.706;2022-07-05T06:45:35;20.50;99.90
25214;DHT22;13160;51.834;4.706;2022-07-05T06:48:05;20.50;99.90
25214;DHT22;13160;51.834;4.706;2022-07-05T06:50:37;20.50;99.90
25214;DHT22;13160;51.834;4.706;2022-07-05T06:53:06;20.50;99.90
25214;DHT22;13160;51.834;4.706;2022-07-05T06:55:35;20.50;99.90
25214;DHT22;13160;51.834;4.706;2022-07-05T06:58:06;20.50;99.90
25214;DHT22;13160;51.834;4.706;2022-07-05T07:00:38;20.60;99.90
25214;DHT22;13160;51.834;4.706;2022-07-05T07:03:27;20.70;99.90
25214;DHT22;13160;51.834;4.706;2022-07-05T07:06:15;20.80;99.90
25214;DHT22;13160;51.834;4.706;2022-07-05T07:08:44;20.80;99.80
25214;DHT22;13160;51.834;4.706;2022-07-05T07:11:28;20.90;99.80
25214;DHT22;13160;51.834;4.706;2022-07-05T07:13:59;20.90;99.80
25214;DHT22;13160;51.834;4.706;2022-07-05T07:16:27;21.00;99.70
25214;DHT22;13160;51.834;4.706;2022-07-05T07:18:56;21.10;99.70
25214;DHT22;13160;51.834;4.706;2022-07-05T07:21:41;21.20;99.60
25214;DHT22;13160;51.834;4.706;2022-07-05T07:24:10;21.30;99.20
25214;DHT22;13160;51.834;4.706;2022-07-05T07:26:39;21.40;99.20
25214;DHT22;13160;51.834;4.706;2022-07-05T07:29:27;21.50;98.70
25214;DHT22;13160;51.834;4.706;2022-07-05T07:31:55;21.60;98.00
25214;DHT22;13160;51.834;4.706;2022-07-05T07:34:24;21.70;97.20
25214;DHT22;13160;51.834;4.706;2022-07-05T07:36:54;21.90;97.20
25214;DHT22;13160;51.834;4.706;2022-07-05T07:39:23;22.10;96.80
25214;DHT22;13160;51.834;4.706;2022-07-05T07:41:51;22.20;96.40
25214;DHT22;13160;51.834;4.706;2022-07-05T07:44:20;22.30;96.40
25214;DHT22;13160;51.834;4.706;2022-07-05T07:46:50;22.30;96.20
25214;DHT22;13160;51.834;4.706;2022-07-05T07:49:18;22.40;96.00
25214;DHT22;13160;51.834;4.706;2022-07-05T07:51:47;22.30;96.00
25214;DHT22;13160;51.834;4.706;2022-07-05T07:54:16;22.30;95.90
25214;DHT22;13160;51.834;4.706;2022-07-05T07:56:45;22.20;95.70
25214;DHT22;13160;51.834;4.706;2022-07-05T07:59:14;22.20;95.40
25214;DHT22;13160;51.834;4.706;2022-07-05T08:01:42;22.10;95.50
25214;DHT22;13160;51.834;4.706;2022-07-05T08:04:13;22.10;95.20
25214;DHT22;13160;51.834;4.706;2022-07-05T08:06:43;22.10;94.60
25214;DHT22;13160;51.834;4.706;2022-07-05T08:09:12;22.00;94.40
25214;DHT22;13160;51.834;4.706;2022-07-05T08:11:44;22.00;94.00
25214;DHT22;13160;51.834;4.706;2022-07-05T08:14:14;21.90;93.70
25214;DHT22;13160;51.834;4.706;2022-07-05T08:16:43;21.80;93.70
25214;DHT22;13160;51.834;4.706;2022-07-05T08:19:19;21.70;93.70
25214;DHT22;13160;51.834;4.706;2022-07-05T08:22:06;21.70;93.70
25214;DHT22;13160;51.834;4.706;2022-07-05T08:24:36;21.80;93.40
25214;DHT22;13160;51.834;4.706;2022-07-05T08:27:07;21.80;93.10
25214;DHT22;13160;51.834;4.706;2022-07-05T08:29:35;21.90;93.10
25214;DHT22;13160;51.834;4.706;2022-07-05T08:32:08;22.00;92.60
25214;DHT22;13160;51.834;4.706;2022-07-05T08:34:38;22.10;92.30
25214;DHT22;13160;51.834;4.706;2022-07-05T08:37:07;22.20;91.80
25214;DHT22;13160;51.834;4.706;2022-07-05T08:39:41;22.30;91.20
25214;DHT22;13160;51.834;4.706;2022-07-05T08:42:10;22.30;91.20
25214;DHT22;13160;51.834;4.706;2022-07-05T08:44:41;22.40;90.80
25214;DHT22;13160;51.834;4.706;2022-07-05T08:47:11;22.50;89.50
25214;DHT22;13160;51.834;4.706;2022-07-05T08:49:43;22.60;88.30
25214;DHT22;13160;51.834;4.706;2022-07-05T08:52:12;22.70;87.50
25214;DHT22;13160;51.834;4.706;2022-07-05T08:54:41;22.70;85.60
25214;DHT22;13160;51.834;4.706;2022-07-05T08:57:11;22.70;85.30
25214;DHT22;13160;51.834;4.706;2022-07-05T08:59:41;22.80;85.70
25214;DHT22;13160;51.834;4.706;2022-07-05T09:02:12;22.80;84.40
25214;DHT22;13160;51.834;4.706;2022-07-05T09:04:45;22.80;82.90
25214;DHT22;13160;51.834;4.706;2022-07-05T09:07:17;22.80;82.10
25214;DHT22;13160;51.834;4.706;2022-07-05T09:09:48;22.90;83.00
25214;DHT22;13160;51.834;4.706;2022-07-05T09:12:19;23.00;81.90
25214;DHT22;13160;51.834;4.706;2022-07-05T09:14:52;23.10;80.90
25214;DHT22;13160;51.834;4.706;2022-07-05T09:17:22;23.40;80.30
25214;DHT22;13160;51.834;4.706;2022-07-05T09:20:10;23.50;78.70
25214;DHT22;13160;51.834;4.706;2022-07-05T09:22:44;23.60;78.50
25214;DHT22;13160;51.834;4.706;2022-07-05T09:25:16;23.70;78.40
25214;DHT22;13160;51.834;4.706;2022-07-05T09:27:54;23.70;78.90
25214;DHT22;13160;51.834;4.706;2022-07-05T09:30:29;23.70;79.20
25214;DHT22;13160;51.834;4.706;2022-07-05T09:33:08;23.80;79.30
25214;DHT22;13160;51.834;4.706;2022-07-05T09:35:39;24.00;77.50
25214;DHT22;13160;51.834;4.706;2022-07-05T09:38:18;24.10;77.60
25214;DHT22;13160;51.834;4.706;2022-07-05T09:40:48;24.20;77.70
25214;DHT22;13160;51.834;4.706;2022-07-05T09:43:19;24.20;77.10
25214;DHT22;13160;51.834;4.706;2022-07-05T09:45:56;24.10;77.50
25214;DHT22;13160;51.834;4.706;2022-07-05T09:48:25;24.10;77.40
25214;DHT22;13160;51.834;4.706;2022-07-05T09:51:08;24.00;77.20
25214;DHT22;13160;51.834;4.706;2022-07-05T09:53:59;24.00;77.20
25214;DHT22;13160;51.834;4.706;2022-07-05T09:56:43;23.90;76.30
25214;DHT22;13160;51.834;4.706;2022-07-05T09:59:14;23.80;75.80
25214;DHT22;13160;51.834;4.706;2022-07-05T10:01:48;23.80;76.30
25214;DHT22;13160;51.834;4.706;2022-07-05T10:04:17;23.70;74.90
25214;DHT22;13160;51.834;4.706;2022-07-05T10:06:48;23.70;76.30
25214;DHT22;13160;51.834;4.706;2022-07-05T10:09:17;23.70;75.80
25214;DHT22;13160;51.834;4.706;2022-07-05T10:11:46;23.80;75.80
25214;DHT22;13160;51.834;4.706;2022-07-05T10:14:17;23.70;75.70
25214;DHT22;13160;51.834;4.706;2022-07-05T10:17:02;23.80;75.20
25214;DHT22;13160;51.834;4.706;2022-07-05T10:19:34;23.80;75.00
25214;DHT22;13160;51.834;4.706;2022-07-05T10:22:07;23.80;75.80
25214;DHT22;13160;51.834;4.706;2022-07-05T10:24:46;23.90;76.90
25214;DHT22;13160;51.834;4.706;2022-07-05T10:27:17;23.90;77.00
25214;DHT22;13160;51.834;4.706;2022-07-05T10:29:48;24.10;76.20
25214;DHT22;13160;51.834;4.706;2022-07-05T10:32:16;24.30;75.50
25214;DHT22;13160;51.834;4.706;2022-07-05T10:34:47;24.50;74.30
25214;DHT22;13160;51.834;4.706;2022-07-05T10:37:24;24.50;73.10
25214;DHT22;13160;51.834;4.706;2022-07-05T10:39:56;24.50;72.20
25214;DHT22;13160;51.834;4.706;2022-07-05T10:42:28;24.40;72.20
25214;DHT22;13160;51.834;4.706;2022-07-05T10:44:59;24.40;72.20
25214;DHT22;13160;51.834;4.706;2022-07-05T10:47:29;24.30;72.40
25214;DHT22;13160;51.834;4.706;2022-07-05T10:50:01;24.20;72.70
25214;DHT22;13160;51.834;4.706;2022-07-05T10:52:32;24.20;72.80
25214;DHT22;13160;51.834;4.706;2022-07-05T10:55:20;24.40;72.00
25214;DHT22;13160;51.834;4.706;2022-07-05T10:58:27;24.50;72.50
25214;DHT22;13160;51.834;4.706;2022-07-05T11:04:28;24.80;70.00
25214;DHT22;13160;51.834;4.706;2022-07-05T11:07:02;25.00;69.60
25214;DHT22;13160;51.834;4.706;2022-07-05T11:09:32;25.00;68.70
25214;DHT22;13160;51.834;4.706;2022-07-05T11:12:05;25.00;68.00
25214;DHT22;13160;51.834;4.706;2022-07-05T11:15:04;25.00;68.00
25214;DHT22;13160;51.834;4.706;2022-07-05T11:17:34;25.10;68.20
25214;DHT22;13160;51.834;4.706;2022-07-05T11:20:31;25.20;66.90
25214;DHT22;13160;51.834;4.706;2022-07-05T11:23:05;25.40;67.20
25214;DHT22;13160;51.834;4.706;2022-07-05T11:25:40;25.40;66.80
25214;DHT22;13160;51.834;4.706;2022-07-05T11:28:15;25.40;66.10
25214;DHT22;13160;51.834;4.706;2022-07-05T11:30:47;25.30;66.50
25214;DHT22;13160;51.834;4.706;2022-07-05T11:33:32;25.40;65.40
25214;DHT22;13160;51.834;4.706;2022-07-05T11:36:30;25.40;64.90
25214;DHT22;13160;51.834;4.706;2022-07-05T11:39:23;25.40;65.30
25214;DHT22;13160;51.834;4.706;2022-07-05T11:41:53;25.40;65.10
25214;DHT22;13160;51.834;4.706;2022-07-05T11:44:22;25.40;64.10
25214;DHT22;13160;51.834;4.706;2022-07-05T11:47:11;25.40;63.20
25214;DHT22;13160;51.834;4.706;2022-07-05T11:49:41;25.40;63.00
25214;DHT22;13160;51.834;4.706;2022-07-05T11:52:09;25.30;62.40
25214;DHT22;13160;51.834;4.706;2022-07-05T11:54:38;25.20;62.40
25214;DHT22;13160;51.834;4.706;2022-07-05T11:57:08;25.30;61.80
25214;DHT22;13160;51.834;4.706;2022-07-05T11:59:41;25.40;61.80
25214;DHT22;13160;51.834;4.706;2022-07-05T12:02:09;25.30;61.20
25214;DHT22;13160;51.834;4.706;2022-07-05T12:04:38;25.30;61.20
25214;DHT22;13160;51.834;4.706;2022-07-05T12:07:08;25.20;61.30
25214;DHT22;13160;51.834;4.706;2022-07-05T12:09:37;25.10;61.30
25214;DHT22;13160;51.834;4.706;2022-07-05T12:12:25;25.00;61.70
25214;DHT22;13160;51.834;4.706;2022-07-05T12:15:12;24.80;62.50
25214;DHT22;13160;51.834;4.706;2022-07-05T12:17:43;24.90;61.90
25214;DHT22;13160;51.834;4.706;2022-07-05T12:20:14;25.00;61.50
25214;DHT22;13160;51.834;4.706;2022-07-05T12:22:45;25.00;61.60
25214;DHT22;13160;51.834;4.706;2022-07-05T12:25:15;25.00;60.40
25214;DHT22;13160;51.834;4.706;2022-07-05T12:27:47;25.00;59.80
25214;DHT22;13160;51.834;4.706;2022-07-05T12:30:17;25.10;59.60
25214;DHT22;13160;51.834;4.706;2022-07-05T12:32:56;25.10;59.70
25214;DHT22;13160;51.834;4.706;2022-07-05T12:35:28;25.20;58.20
25214;DHT22;13160;51.834;4.706;2022-07-05T12:38:06;25.00;58.30
25214;DHT22;13160;51.834;4.706;2022-07-05T12:40:37;24.90;58.10
25214;DHT22;13160;51.834;4.706;2022-07-05T12:43:19;24.80;58.30
25214;DHT22;13160;51.834;4.706;2022-07-05T12:46:00;24.70;58.50
25214;DHT22;13160;51.834;4.706;2022-07-05T12:48:33;24.60;58.80
25214;DHT22;13160;51.834;4.706;2022-07-05T12:51:03;24.60;59.10
25214;DHT22;13160;51.834;4.706;2022-07-05T12:53:47;24.60;59.20
25214;DHT22;13160;51.834;4.706;2022-07-05T12:56:34;24.80;59.20
25214;DHT22;13160;51.834;4.706;2022-07-05T12:59:56;24.80;59.10
25214;DHT22;13160;51.834;4.706;2022-07-05T13:02:37;24.90;58.70
25214;DHT22;13160;51.834;4.706;2022-07-05T13:05:08;24.90;59.30
25214;DHT22;13160;51.834;4.706;2022-07-05T13:07:41;24.90;59.30
25214;DHT22;13160;51.834;4.706;2022-07-05T13:10:21;24.80;58.60
25214;DHT22;13160;51.834;4.706;2022-07-05T13:12:50;24.70;58.80
25214;DHT22;13160;51.834;4.706;2022-07-05T13:15:20;24.60;58.80
25214;DHT22;13160;51.834;4.706;2022-07-05T13:17:49;24.60;58.80
25214;DHT22;13160;51.834;4.706;2022-07-05T13:20:19;24.70;59.00
25214;DHT22;13160;51.834;4.706;2022-07-05T13:22:49;24.70;59.30
25214;DHT22;13160;51.834;4.706;2022-07-05T13:25:18;24.80;59.60
25214;DHT22;13160;51.834;4.706;2022-07-05T13:27:47;24.90;59.30
25214;DHT22;13160;51.834;4.706;2022-07-05T13:30:15;25.00;59.40
25214;DHT22;13160;51.834;4.706;2022-07-05T13:32:45;25.10;58.30
25214;DHT22;13160;51.834;4.706;2022-07-05T13:35:13;25.20;58.40
25214;DHT22;13160;51.834;4.706;2022-07-05T13:37:42;25.20;58.20
25214;DHT22;13160;51.834;4.706;2022-07-05T13:40:11;25.20;58.40
25214;DHT22;13160;51.834;4.706;2022-07-05T13:42:40;25.10;58.50
25214;DHT22;13160;51.834;4.706;2022-07-05T13:45:09;25.10;58.10
25214;DHT22;13160;51.834;4.706;2022-07-05T13:47:40;25.10;57.50
25214;DHT22;13160;51.834;4.706;2022-07-05T13:50:09;25.00;57.20
25214;DHT22;13160;51.834;4.706;2022-07-05T13:52:55;24.90;57.60
25214;DHT22;13160;51.834;4.706;2022-07-05T13:55:24;25.00;57.30
25214;DHT22;13160;51.834;4.706;2022-07-05T13:57:52;25.00;57.40
25214;DHT22;13160;51.834;4.706;2022-07-05T14:00:21;25.00;57.70
25214;DHT22;13160;51.834;4.706;2022-07-05T14:02:49;25.20;57.30
25214;DHT22;13160;51.834;4.706;2022-07-05T14:05:19;25.20;56.80
25214;DHT22;13160;51.834;4.706;2022-07-05T14:07:48;25.30;57.10
25214;DHT22;13160;51.834;4.706;2022-07-05T14:10:16;25.20;57.70
25214;DHT22;13160;51.834;4.706;2022-07-05T14:12:45;25.10;58.00
25214;DHT22;13160;51.834;4.706;2022-07-05T14:15:13;24.90;58.40
25214;DHT22;13160;51.834;4.706;2022-07-05T14:17:44;24.80;58.60
25214;DHT22;13160;51.834;4.706;2022-07-05T14:20:12;24.80;58.50
25214;DHT22;13160;51.834;4.706;2022-07-05T14:22:42;24.60;58.40
25214;DHT22;13160;51.834;4.706;2022-07-05T14:25:10;24.60;58.60
25214;DHT22;13160;51.834;4.706;2022-07-05T14:27:39;24.50;58.40
25214;DHT22;13160;51.834;4.706;2022-07-05T14:30:10;24.60;59.00
25214;DHT22;13160;51.834;4.706;2022-07-05T14:32:39;24.60;58.60
25214;DHT22;13160;51.834;4.706;2022-07-05T14:35:14;24.50;58.80
25214;DHT22;13160;51.834;4.706;2022-07-05T14:37:44;24.50;58.60
25214;DHT22;13160;51.834;4.706;2022-07-05T14:40:13;24.50;58.00
25214;DHT22;13160;51.834;4.706;2022-07-05T14:42:42;24.50;58.20
25214;DHT22;13160;51.834;4.706;2022-07-05T14:45:10;24.40;58.40
25214;DHT22;13160;51.834;4.706;2022-07-05T14:47:39;24.30;58.10
25214;DHT22;13160;51.834;4.706;2022-07-05T14:50:07;24.30;57.90
25214;DHT22;13160;51.834;4.706;2022-07-05T14:52:37;24.20;57.40
25214;DHT22;13160;51.834;4.706;2022-07-05T14:55:07;24.00;58.10
25214;DHT22;13160;51.834;4.706;2022-07-05T14:57:37;24.00;58.50
25214;DHT22;13160;51.834;4.706;2022-07-05T15:00:09;23.90;58.20
25214;DHT22;13160;51.834;4.706;2022-07-05T15:02:39;23.80;57.90
25214;DHT22;13160;51.834;4.706;2022-07-05T15:05:09;23.70;58.20
25214;DHT22;13160;51.834;4.706;2022-07-05T15:07:39;23.70;58.10
25214;DHT22;13160;51.834;4.706;2022-07-05T15:10:09;23.60;58.70
25214;DHT22;13160;51.834;4.706;2022-07-05T15:12:39;23.60;58.90
25214;DHT22;13160;51.834;4.706;2022-07-05T15:15:08;23.50;59.50
25214;DHT22;13160;51.834;4.706;2022-07-05T15:17:37;23.50;60.60
25214;DHT22;13160;51.834;4.706;2022-07-05T15:20:06;23.50;60.20
25214;DHT22;13160;51.834;4.706;2022-07-05T15:22:36;23.50;59.80
25214;DHT22;13160;51.834;4.706;2022-07-05T15:25:05;23.40;59.90
25214;DHT22;13160;51.834;4.706;2022-07-05T15:27:36;23.40;60.40
25214;DHT22;13160;51.834;4.706;2022-07-05T15:30:06;23.30;60.80
25214;DHT22;13160;51.834;4.706;2022-07-05T15:32:36;23.20;61.80
25214;DHT22;13160;51.834;4.706;2022-07-05T15:35:04;23.20;62.20
25214;DHT22;13160;51.834;4.706;2022-07-05T15:37:33;23.10;62.70
25214;DHT22;13160;51.834;4.706;2022-07-05T15:40:02;23.00;62.00
25214;DHT22;13160;51.834;4.706;2022-07-05T15:42:31;22.90;61.60
25214;DHT22;13160;51.834;4.706;2022-07-05T15:45:01;22.80;61.70
25214;DHT22;13160;51.834;4.706;2022-07-05T15:47:32;22.80;61.80
25214;DHT22;13160;51.834;4.706;2022-07-05T15:50:03;22.80;61.80
25214;DHT22;13160;51.834;4.706;2022-07-05T15:52:34;22.60;61.50
25214;DHT22;13160;51.834;4.706;2022-07-05T15:55:04;22.50;62.10
25214;DHT22;13160;51.834;4.706;2022-07-05T15:57:35;22.50;61.80
25214;DHT22;13160;51.834;4.706;2022-07-05T16:00:08;22.40;62.60